createdAt,value
2022-09-21T00:00:08.489Z,1.73
2022-09-21T00:05:07.854Z,1.20
2022-09-21T00:10:08.591Z,1.70
2022-09-21T00:15:08.339Z,1.60
2022-09-21T00:20:08.104Z,1.65
2022-09-21T00:25:07.796Z,1.50
2022-09-21T00:30:08.487Z,1.50
2022-09-21T00:35:08.179Z,1.50
2022-09-21T00:40:07.916Z,1.63
2022-09-21T00:45:08.623Z,1.80
2022-09-21T00:50:08.357Z,1.80
2022-09-21T00:55:08.048Z,1.80
2022-09-21T01:00:07.764Z,1.60
2022-09-21T01:05:08.427Z,1.90
2022-09-21T01:10:08.138Z,1.73
2022-09-21T01:15:07.821Z,1.73
2022-09-21T01:20:08.527Z,1.85
2022-09-21T01:25:08.244Z,1.83
2022-09-21T01:30:07.970Z,1.83
2022-09-21T01:35:07.691Z,1.48
2022-09-21T01:40:08.489Z,1.65
2022-09-21T01:45:08.228Z,1.60
2022-09-21T01:50:07.961Z,1.85
2022-09-21T01:55:12.859Z,2.10
2022-09-21T02:00:08.552Z,2.10
2022-09-21T02:05:08.242Z,1.42
2022-09-21T02:10:07.946Z,1.77
2022-09-21T02:15:07.666Z,2.13
2022-09-21T02:20:08.396Z,1.80
2022-09-21T02:25:08.042Z,1.90
2022-09-21T02:30:07.763Z,2.17
2022-09-21T02:35:08.466Z,1.83
2022-09-21T02:40:08.206Z,1.88
2022-09-21T02:45:14.505Z,2.13
2022-09-21T02:50:08.193Z,2.10
2022-09-21T02:55:07.884Z,2.65
2022-09-21T03:00:10.055Z,2.15
2022-09-21T03:05:07.789Z,2.40
2022-09-21T03:10:08.473Z,2.63
2022-09-21T03:15:08.162Z,2.25
2022-09-21T03:20:07.906Z,2.55
2022-09-21T03:25:08.580Z,2.20
2022-09-21T03:30:08.259Z,2.25
2022-09-21T03:35:07.944Z,1.95
2022-09-21T03:40:07.719Z,2.72
2022-09-21T03:45:08.417Z,2.05
2022-09-21T03:50:10.200Z,2.05
2022-09-21T03:55:08.053Z,2.20
2022-09-21T04:00:07.775Z,2.00
2022-09-21T04:05:02.624Z,1.83
2022-09-21T04:10:02.437Z,1.88
2022-09-21T04:15:02.197Z,1.58
2022-09-21T04:20:02.063Z,1.58
2022-09-21T04:25:01.793Z,1.85
2022-09-21T04:30:01.870Z,2.10
2022-09-21T04:35:02.720Z,1.80
2022-09-21T04:40:02.597Z,2.55
2022-09-21T04:45:02.400Z,2.08
2022-09-21T04:50:02.185Z,2.22
2022-09-21T04:55:02.028Z,1.90
2022-09-21T05:00:01.877Z,1.80
2022-09-21T05:05:02.907Z,2.15
2022-09-21T05:10:02.857Z,2.40
2022-09-21T05:15:02.783Z,2.25
2022-09-21T05:20:02.701Z,2.08
2022-09-21T05:25:02.532Z,2.25
2022-09-21T05:30:02.414Z,2.33
2022-09-21T05:35:02.299Z,2.45
2022-09-21T05:40:02.351Z,2.10
2022-09-21T05:45:02.174Z,2.38
2022-09-21T05:50:01.974Z,2.60
2022-09-21T05:55:01.742Z,2.45
2022-09-21T06:00:02.609Z,2.50
2022-09-21T06:05:02.405Z,2.25
2022-09-21T06:10:02.233Z,2.28
2022-09-21T06:15:01.953Z,2.10
2022-09-21T06:20:01.757Z,2.00
2022-09-21T06:25:02.560Z,2.05
2022-09-21T06:30:02.360Z,2.25
2022-09-21T06:35:02.213Z,2.20
2022-09-21T06:40:02.044Z,3.08
2022-09-21T06:45:01.946Z,2.33
2022-09-21T06:50:01.793Z,2.58
2022-09-21T06:55:02.538Z,2.72
2022-09-21T07:00:02.358Z,2.50
2022-09-21T07:05:02.254Z,2.85
2022-09-21T07:10:06.208Z,2.53
2022-09-21T07:15:02.588Z,3.40
2022-09-21T07:20:02.412Z,3.25
2022-09-21T07:25:02.249Z,3.30
2022-09-21T07:30:02.058Z,3.50
2022-09-21T07:35:01.980Z,3.38
2022-09-21T07:40:01.866Z,3.33
2022-09-21T07:45:04.599Z,3.70
2022-09-21T07:50:02.800Z,3.53
2022-09-21T07:55:02.749Z,3.75
2022-09-21T08:00:02.680Z,3.53
2022-09-21T08:05:02.612Z,4.13
2022-09-21T08:10:02.540Z,4.55
2022-09-21T08:15:02.654Z,3.70
2022-09-21T08:20:02.671Z,3.40
2022-09-21T08:25:02.517Z,4.70
2022-09-21T08:30:02.351Z,4.50
2022-09-21T08:35:02.193Z,4.72
2022-09-21T08:40:02.663Z,4.28
2022-09-21T08:45:02.577Z,5.55
2022-09-21T08:50:02.401Z,4.93
2022-09-21T08:55:02.244Z,4.85
2022-09-21T09:00:02.055Z,5.47
2022-09-21T09:05:01.874Z,4.88
2022-09-21T09:10:02.743Z,3.60
2022-09-21T09:15:02.556Z,2.95
2022-09-21T09:20:02.377Z,3.40
2022-09-21T09:25:02.301Z,3.15
2022-09-21T09:30:03.643Z,3.22
2022-09-21T09:35:01.838Z,2.40
2022-09-21T09:40:02.726Z,2.60
2022-09-21T09:45:02.541Z,2.00
2022-09-21T09:50:10.573Z,1.83
2022-09-21T09:55:12.392Z,0
2022-09-21T10:00:02.228Z,1.50
2022-09-21T10:05:02.042Z,1.17
2022-09-21T10:10:01.898Z,1.20
2022-09-21T10:15:02.738Z,1.13
2022-09-21T10:20:02.556Z,1.10
2022-09-21T10:25:02.367Z,1.00
2022-09-21T10:30:02.217Z,1.48
2022-09-21T10:35:02.187Z,1.30
2022-09-21T10:40:02.207Z,0.90
2022-09-21T10:45:02.133Z,1.20
2022-09-21T10:50:02.108Z,0.90
2022-09-21T10:55:01.984Z,1.30
2022-09-21T11:00:02.013Z,0.90
2022-09-21T11:05:02.034Z,0.80
2022-09-21T11:10:11.815Z,0
2022-09-21T11:15:02.631Z,0.80
2022-09-21T11:20:02.568Z,1.05
2022-09-21T11:25:02.423Z,0.77
2022-09-21T11:30:02.228Z,1.10
2022-09-21T11:35:02.043Z,1.17
2022-09-21T11:40:11.938Z,0
2022-09-21T11:45:01.856Z,0.90
2022-09-21T11:50:26.479Z,1.35
2022-09-21T11:55:01.751Z,1.45
2022-09-21T12:00:02.539Z,1.00
2022-09-21T12:05:02.372Z,1.10
2022-09-21T12:10:02.237Z,0.95
2022-09-21T12:15:02.350Z,1.00
2022-09-21T12:20:02.444Z,1.30
2022-09-21T12:25:02.286Z,1.27
2022-09-21T12:30:02.116Z,0.63
2022-09-21T12:35:01.943Z,0.70
2022-09-21T12:40:01.844Z,1.10
2022-09-21T12:45:12.595Z,0
2022-09-21T12:50:02.457Z,0.68
2022-09-21T12:55:02.278Z,0.70
2022-09-21T13:00:02.108Z,0.68
2022-09-21T13:05:01.994Z,0.82
2022-09-21T13:10:01.994Z,1.10
2022-09-21T13:15:01.879Z,1.20
2022-09-21T13:20:02.853Z,0.90
2022-09-21T13:25:02.788Z,1.38
2022-09-21T13:30:02.696Z,1.20
2022-09-21T13:35:02.538Z,0.95
2022-09-21T13:40:02.601Z,1.20
2022-09-21T13:45:02.620Z,1.10
2022-09-21T13:50:02.433Z,1.30
2022-09-21T13:55:02.329Z,1.20
2022-09-21T14:00:02.332Z,1.00
2022-09-21T14:05:02.138Z,0.95
2022-09-21T14:10:02.075Z,1.30
2022-09-21T14:15:01.996Z,1.20
2022-09-21T14:20:01.835Z,1.02
2022-09-21T14:25:02.664Z,1.50
2022-09-21T14:30:06.761Z,1.20
2022-09-21T14:35:01.804Z,1.20
2022-09-21T14:40:02.642Z,0.90
2022-09-21T14:45:02.503Z,1.25
2022-09-21T14:50:06.481Z,0.75
2022-09-21T14:55:02.342Z,1.10
2022-09-21T15:00:02.195Z,1.17
2022-09-21T15:05:02.014Z,1.10
2022-09-21T15:10:01.832Z,1.15
2022-09-21T15:15:02.578Z,1.13
2022-09-21T15:20:02.417Z,1.33
2022-09-21T15:25:02.152Z,1.20
2022-09-21T15:30:01.960Z,1.10
2022-09-21T15:35:01.816Z,1.65
2022-09-21T15:40:02.690Z,1.10
2022-09-21T15:45:02.582Z,1.05
2022-09-21T15:50:02.542Z,1.20
2022-09-21T15:55:02.475Z,1.02
2022-09-21T16:00:02.369Z,1.00
2022-09-21T16:05:02.210Z,0.98
2022-09-21T16:10:02.149Z,1.00
2022-09-21T16:15:04.260Z,2.05
2022-09-21T16:20:02.433Z,1.80
2022-09-21T16:25:02.777Z,1.10
2022-09-21T16:30:02.649Z,1.42
2022-09-21T16:35:12.496Z,0
2022-09-21T16:40:02.400Z,1.20
2022-09-21T16:45:02.171Z,1.27
2022-09-21T16:50:02.012Z,1.15
2022-09-21T16:55:01.812Z,1.38
2022-09-21T17:00:02.580Z,1.23
2022-09-21T17:05:02.381Z,1.02
2022-09-21T17:10:02.103Z,0.90
2022-09-21T17:15:01.953Z,0.90
2022-09-21T17:20:01.788Z,1.10
2022-09-21T17:25:02.533Z,0.82
2022-09-21T17:30:02.340Z,1.10
2022-09-21T17:35:02.219Z,1.20
2022-09-21T17:40:04.034Z,1.30
2022-09-21T17:45:12.718Z,0
2022-09-21T17:50:02.627Z,1.42
2022-09-21T17:55:05.700Z,1.60
2022-09-21T18:00:01.875Z,1.45
2022-09-21T18:05:02.693Z,1.30
2022-09-21T18:10:02.523Z,1.40
2022-09-21T18:15:02.332Z,1.15
2022-09-21T18:20:12.040Z,0
2022-09-21T18:25:01.898Z,1.58
2022-09-21T18:30:02.668Z,1.60
2022-09-21T18:35:02.617Z,1.45
2022-09-21T18:40:02.643Z,1.58
2022-09-21T18:45:02.674Z,1.55
2022-09-21T18:50:02.491Z,1.58
2022-09-21T18:55:02.427Z,1.85
2022-09-21T19:00:02.356Z,2.00
2022-09-21T19:05:02.309Z,1.92
2022-09-21T19:10:02.285Z,2.03
2022-09-21T19:15:02.056Z,2.20
2022-09-21T19:20:04.018Z,2.38
2022-09-21T19:25:01.775Z,2.58
2022-09-21T19:30:02.589Z,2.70
2022-09-21T19:35:02.385Z,2.80
2022-09-21T19:40:02.275Z,2.83
2022-09-21T19:45:02.036Z,3.13
2022-09-21T19:50:01.863Z,5.32
2022-09-21T19:55:07.597Z,4.15
2022-09-21T20:00:02.385Z,3.75
2022-09-21T20:05:02.158Z,3.50
2022-09-21T20:10:02.022Z,3.70
2022-09-21T20:15:01.863Z,3.55
2022-09-21T20:20:02.693Z,4.72
2022-09-21T20:25:02.542Z,4.88
2022-09-21T20:30:02.331Z,4.95
2022-09-21T20:35:15.338Z,4.90
2022-09-21T20:40:08.090Z,4.85
2022-09-21T20:45:07.896Z,4.78
2022-09-21T20:50:08.588Z,4.38
2022-09-21T20:55:08.281Z,4.47
2022-09-21T21:00:07.985Z,3.90
2022-09-21T21:05:07.701Z,3.10
2022-09-21T21:10:08.438Z,2.45
2022-09-21T21:15:08.151Z,2.80
2022-09-21T21:20:07.854Z,2.50
2022-09-21T21:25:08.576Z,2.78
2022-09-21T21:30:08.265Z,2.80
2022-09-21T21:35:07.950Z,3.60
2022-09-21T21:40:07.724Z,4.07
2022-09-21T21:45:08.478Z,3.90
2022-09-21T21:50:08.185Z,3.45
2022-09-21T21:55:07.879Z,3.50
2022-09-21T22:00:08.625Z,3.00
2022-09-21T22:05:08.329Z,2.90
2022-09-21T22:10:08.071Z,3.20
2022-09-21T22:15:07.768Z,2.85
2022-09-21T22:20:08.525Z,3.25
2022-09-21T22:25:08.272Z,2.90
2022-09-21T22:30:07.937Z,2.88
2022-09-21T22:35:08.602Z,2.75
2022-09-21T22:40:08.366Z,3.08
2022-09-21T22:45:08.082Z,2.35
2022-09-21T22:50:07.791Z,2.75
2022-09-21T22:55:08.584Z,2.70
2022-09-21T23:01:01.007Z,2.88
2022-09-21T23:05:07.732Z,2.30
2022-09-21T23:10:08.427Z,2.80
2022-09-21T23:15:08.104Z,2.78
2022-09-21T23:20:07.784Z,2.53
2022-09-21T23:25:08.523Z,2.53
2022-09-21T23:30:08.243Z,2.78
2022-09-21T23:35:07.947Z,2.90
2022-09-21T23:40:07.738Z,3.10
2022-09-21T23:45:08.456Z,2.55
2022-09-21T23:50:08.135Z,3.00
2022-09-21T23:55:07.820Z,2.67
